Aviation Digital Data Service (ADDS)

Output produced by METARs form (1921 UTC 31 January 2023)
found at http://www.aviationweather.gov/metar/data/
 
KAGS 311853Z 18005KT 10SM OVC012 18/16 A3012 RMK AO2 SLP198 T01830156
KAGS 311727Z 3118/0118 VRB03KT P6SM OVC007 
     FM312100 28007KT P6SM BKN015 
     FM010400 VRB04KT 4SM BR VCSH BKN005 OVC015